sensor_id;sensor_type;location;lat;lon;timestamp;P1;durP1;ratioP1;P2;durP2;ratioP2
15889;SDS011;8043;49.388;12.128;2022-08-03T00:04:22;3.30;;;2.53;;
15889;SDS011;8043;49.388;12.128;2022-08-03T00:09:25;5.47;;;2.67;;
15889;SDS011;8043;49.388;12.128;2022-08-03T00:14:27;2.73;;;2.13;;
15889;SDS011;8043;49.388;12.128;2022-08-03T00:19:29;3.37;;;2.40;;
15889;SDS011;8043;49.388;12.128;2022-08-03T00:24:31;2.50;;;2.10;;
15889;SDS011;8043;49.388;12.128;2022-08-03T00:29:35;3.83;;;2.07;;
15889;SDS011;8043;49.388;12.128;2022-08-03T00:34:37;3.13;;;2.10;;
15889;SDS011;8043;49.388;12.128;2022-08-03T00:39:40;3.50;;;2.03;;
15889;SDS011;8043;49.388;12.128;2022-08-03T00:44:43;3.13;;;2.30;;
15889;SDS011;8043;49.388;12.128;2022-08-03T00:49:45;3.77;;;2.13;;
15889;SDS011;8043;49.388;12.128;2022-08-03T00:54:47;4.97;;;2.60;;
15889;SDS011;8043;49.388;12.128;2022-08-03T00:59:50;2.30;;;2.10;;
15889;SDS011;8043;49.388;12.128;2022-08-03T01:04:52;3.90;;;2.50;;
15889;SDS011;8043;49.388;12.128;2022-08-03T01:20:38;4.23;;;2.43;;
15889;SDS011;8043;49.388;12.128;2022-08-03T01:30:48;3.47;;;2.37;;
15889;SDS011;8043;49.388;12.128;2022-08-03T01:35:53;3.60;;;2.37;;
15889;SDS011;8043;49.388;12.128;2022-08-03T01:40:56;4.00;;;2.60;;
15889;SDS011;8043;49.388;12.128;2022-08-03T01:46:05;4.60;;;2.93;;
15889;SDS011;8043;49.388;12.128;2022-08-03T01:51:08;2.93;;;2.30;;
15889;SDS011;8043;49.388;12.128;2022-08-03T01:56:11;5.57;;;3.00;;
15889;SDS011;8043;49.388;12.128;2022-08-03T02:01:14;4.03;;;2.70;;
15889;SDS011;8043;49.388;12.128;2022-08-03T02:06:18;4.00;;;2.30;;
15889;SDS011;8043;49.388;12.128;2022-08-03T02:11:21;3.47;;;2.60;;
15889;SDS011;8043;49.388;12.128;2022-08-03T02:16:23;4.93;;;2.80;;
15889;SDS011;8043;49.388;12.128;2022-08-03T02:21:27;4.57;;;2.67;;
15889;SDS011;8043;49.388;12.128;2022-08-03T02:26:30;4.33;;;2.63;;
15889;SDS011;8043;49.388;12.128;2022-08-03T02:31:33;3.37;;;2.27;;
15889;SDS011;8043;49.388;12.128;2022-08-03T02:36:38;2.97;;;2.40;;
15889;SDS011;8043;49.388;12.128;2022-08-03T02:41:42;3.77;;;2.33;;
15889;SDS011;8043;49.388;12.128;2022-08-03T02:46:49;2.90;;;2.40;;
15889;SDS011;8043;49.388;12.128;2022-08-03T02:51:54;6.27;;;2.57;;
15889;SDS011;8043;49.388;12.128;2022-08-03T02:56:57;3.47;;;2.37;;
15889;SDS011;8043;49.388;12.128;2022-08-03T03:01:59;3.57;;;2.57;;
15889;SDS011;8043;49.388;12.128;2022-08-03T03:07:02;4.50;;;2.57;;
15889;SDS011;8043;49.388;12.128;2022-08-03T03:12:05;3.87;;;2.80;;
15889;SDS011;8043;49.388;12.128;2022-08-03T03:17:09;4.80;;;2.80;;
15889;SDS011;8043;49.388;12.128;2022-08-03T03:22:12;3.87;;;2.60;;
15889;SDS011;8043;49.388;12.128;2022-08-03T03:27:15;4.23;;;2.90;;
15889;SDS011;8043;49.388;12.128;2022-08-03T03:32:17;4.50;;;3.20;;
15889;SDS011;8043;49.388;12.128;2022-08-03T03:37:19;4.00;;;2.63;;
15889;SDS011;8043;49.388;12.128;2022-08-03T03:42:21;3.57;;;2.63;;
15889;SDS011;8043;49.388;12.128;2022-08-03T03:47:25;6.33;;;2.77;;
15889;SDS011;8043;49.388;12.128;2022-08-03T03:52:27;5.00;;;2.70;;
15889;SDS011;8043;49.388;12.128;2022-08-03T03:57:29;6.17;;;3.37;;
15889;SDS011;8043;49.388;12.128;2022-08-03T04:02:32;6.37;;;2.73;;
15889;SDS011;8043;49.388;12.128;2022-08-03T04:13:18;3.73;;;2.87;;
15889;SDS011;8043;49.388;12.128;2022-08-03T04:18:21;4.43;;;2.67;;
15889;SDS011;8043;49.388;12.128;2022-08-03T04:23:25;6.23;;;2.83;;
15889;SDS011;8043;49.388;12.128;2022-08-03T04:28:28;5.33;;;3.00;;
15889;SDS011;8043;49.388;12.128;2022-08-03T04:33:32;6.33;;;3.50;;
15889;SDS011;8043;49.388;12.128;2022-08-03T04:38:37;5.07;;;2.97;;
15889;SDS011;8043;49.388;12.128;2022-08-03T04:43:40;9.50;;;3.03;;
15889;SDS011;8043;49.388;12.128;2022-08-03T04:48:43;3.47;;;2.70;;
15889;SDS011;8043;49.388;12.128;2022-08-03T04:53:45;5.03;;;2.70;;
15889;SDS011;8043;49.388;12.128;2022-08-03T04:58:48;4.93;;;3.27;;
15889;SDS011;8043;49.388;12.128;2022-08-03T05:03:50;4.43;;;3.10;;
15889;SDS011;8043;49.388;12.128;2022-08-03T05:08:52;4.97;;;2.77;;
15889;SDS011;8043;49.388;12.128;2022-08-03T05:13:55;4.00;;;2.73;;
15889;SDS011;8043;49.388;12.128;2022-08-03T05:18:57;7.33;;;2.80;;
15889;SDS011;8043;49.388;12.128;2022-08-03T05:23:59;6.33;;;2.93;;
15889;SDS011;8043;49.388;12.128;2022-08-03T05:29:02;5.80;;;2.97;;
15889;SDS011;8043;49.388;12.128;2022-08-03T05:34:04;4.13;;;2.57;;
15889;SDS011;8043;49.388;12.128;2022-08-03T05:39:07;6.03;;;2.70;;
15889;SDS011;8043;49.388;12.128;2022-08-03T05:44:09;3.33;;;2.40;;
15889;SDS011;8043;49.388;12.128;2022-08-03T05:49:11;4.60;;;2.80;;
15889;SDS011;8043;49.388;12.128;2022-08-03T05:54:13;3.70;;;2.70;;
15889;SDS011;8043;49.388;12.128;2022-08-03T05:59:17;3.43;;;2.77;;
15889;SDS011;8043;49.388;12.128;2022-08-03T06:04:19;3.17;;;2.53;;
15889;SDS011;8043;49.388;12.128;2022-08-03T06:09:22;4.57;;;2.90;;
15889;SDS011;8043;49.388;12.128;2022-08-03T06:14:24;7.37;;;2.83;;
15889;SDS011;8043;49.388;12.128;2022-08-03T06:19:26;3.40;;;2.70;;
15889;SDS011;8043;49.388;12.128;2022-08-03T06:24:28;4.10;;;2.60;;
15889;SDS011;8043;49.388;12.128;2022-08-03T06:29:31;4.90;;;2.40;;
15889;SDS011;8043;49.388;12.128;2022-08-03T06:34:33;2.73;;;2.03;;
15889;SDS011;8043;49.388;12.128;2022-08-03T06:39:35;3.00;;;2.07;;
15889;SDS011;8043;49.388;12.128;2022-08-03T06:44:38;4.00;;;2.60;;
15889;SDS011;8043;49.388;12.128;2022-08-03T06:49:40;5.70;;;2.63;;
15889;SDS011;8043;49.388;12.128;2022-08-03T06:54:42;3.60;;;2.83;;
15889;SDS011;8043;49.388;12.128;2022-08-03T06:59:44;3.50;;;2.40;;
15889;SDS011;8043;49.388;12.128;2022-08-03T07:04:47;5.47;;;2.40;;
15889;SDS011;8043;49.388;12.128;2022-08-03T07:09:49;2.40;;;2.10;;
15889;SDS011;8043;49.388;12.128;2022-08-03T07:14:52;3.30;;;2.30;;
15889;SDS011;8043;49.388;12.128;2022-08-03T07:19:55;4.30;;;2.67;;
15889;SDS011;8043;49.388;12.128;2022-08-03T07:24:57;3.30;;;2.40;;
15889;SDS011;8043;49.388;12.128;2022-08-03T07:30:00;3.02;;;2.25;;
15889;SDS011;8043;49.388;12.128;2022-08-03T07:35:03;6.57;;;2.63;;
15889;SDS011;8043;49.388;12.128;2022-08-03T07:40:06;3.50;;;2.40;;
15889;SDS011;8043;49.388;12.128;2022-08-03T07:45:09;3.12;;;2.00;;
15889;SDS011;8043;49.388;12.128;2022-08-03T07:50:11;4.22;;;2.35;;
15889;SDS011;8043;49.388;12.128;2022-08-03T07:55:14;2.87;;;2.33;;
15889;SDS011;8043;49.388;12.128;2022-08-03T08:00:17;2.52;;;2.15;;
15889;SDS011;8043;49.388;12.128;2022-08-03T08:05:20;5.45;;;2.40;;
15889;SDS011;8043;49.388;12.128;2022-08-03T08:10:23;3.02;;;2.40;;
15889;SDS011;8043;49.388;12.128;2022-08-03T08:15:26;3.92;;;2.10;;
15889;SDS011;8043;49.388;12.128;2022-08-03T08:20:29;3.70;;;2.80;;
15889;SDS011;8043;49.388;12.128;2022-08-03T08:25:33;2.27;;;1.98;;
15889;SDS011;8043;49.388;12.128;2022-08-03T08:30:35;3.80;;;2.37;;
15889;SDS011;8043;49.388;12.128;2022-08-03T08:35:37;3.20;;;2.20;;
15889;SDS011;8043;49.388;12.128;2022-08-03T08:40:40;6.92;;;2.33;;
15889;SDS011;8043;49.388;12.128;2022-08-03T08:45:43;6.20;;;2.05;;
15889;SDS011;8043;49.388;12.128;2022-08-03T08:50:46;3.47;;;2.27;;
15889;SDS011;8043;49.388;12.128;2022-08-03T08:55:48;2.05;;;1.85;;
15889;SDS011;8043;49.388;12.128;2022-08-03T09:00:51;4.15;;;2.20;;
15889;SDS011;8043;49.388;12.128;2022-08-03T09:05:53;3.52;;;1.62;;
15889;SDS011;8043;49.388;12.128;2022-08-03T09:10:55;2.83;;;2.35;;
15889;SDS011;8043;49.388;12.128;2022-08-03T09:16:14;2.80;;;1.85;;
15889;SDS011;8043;49.388;12.128;2022-08-03T09:21:25;1.87;;;1.62;;
15889;SDS011;8043;49.388;12.128;2022-08-03T09:26:36;4.72;;;2.02;;
15889;SDS011;8043;49.388;12.128;2022-08-03T09:31:37;3.05;;;1.60;;
15889;SDS011;8043;49.388;12.128;2022-08-03T09:41:46;1.40;;;1.30;;
15889;SDS011;8043;49.388;12.128;2022-08-03T09:46:51;3.70;;;1.50;;
15889;SDS011;8043;49.388;12.128;2022-08-03T09:52:11;1.50;;;1.30;;
15889;SDS011;8043;49.388;12.128;2022-08-03T09:57:23;1.57;;;1.47;;
15889;SDS011;8043;49.388;12.128;2022-08-03T10:02:26;2.20;;;1.52;;
15889;SDS011;8043;49.388;12.128;2022-08-03T10:07:28;4.70;;;1.50;;
15889;SDS011;8043;49.388;12.128;2022-08-03T10:12:30;2.90;;;1.65;;
15889;SDS011;8043;49.388;12.128;2022-08-03T10:17:33;2.05;;;1.75;;
15889;SDS011;8043;49.388;12.128;2022-08-03T10:22:35;4.55;;;1.60;;
15889;SDS011;8043;49.388;12.128;2022-08-03T10:27:40;4.00;;;1.80;;
15889;SDS011;8043;49.388;12.128;2022-08-03T10:32:43;3.72;;;1.50;;
15889;SDS011;8043;49.388;12.128;2022-08-03T10:37:54;2.37;;;1.70;;
15889;SDS011;8043;49.388;12.128;2022-08-03T10:43:06;1.85;;;1.62;;
15889;SDS011;8043;49.388;12.128;2022-08-03T10:48:16;1.30;;;1.20;;
15889;SDS011;8043;49.388;12.128;2022-08-03T10:53:39;2.05;;;1.50;;
15889;SDS011;8043;49.388;12.128;2022-08-03T11:14:18;2.05;;;1.40;;
15889;SDS011;8043;49.388;12.128;2022-08-03T11:19:21;3.47;;;1.75;;
15889;SDS011;8043;49.388;12.128;2022-08-03T11:40:31;1.37;;;1.17;;
15889;SDS011;8043;49.388;12.128;2022-08-03T11:45:37;1.25;;;1.15;;
15889;SDS011;8043;49.388;12.128;2022-08-03T11:50:41;1.90;;;1.22;;
15889;SDS011;8043;49.388;12.128;2022-08-03T11:55:45;1.57;;;1.30;;
15889;SDS011;8043;49.388;12.128;2022-08-03T12:00:52;1.98;;;1.07;;
15889;SDS011;8043;49.388;12.128;2022-08-03T12:06:10;1.95;;;1.42;;
15889;SDS011;8043;49.388;12.128;2022-08-03T12:11:14;1.35;;;1.07;;
15889;SDS011;8043;49.388;12.128;2022-08-03T12:16:22;2.25;;;1.27;;
15889;SDS011;8043;49.388;12.128;2022-08-03T12:21:22;2.87;;;1.45;;
15889;SDS011;8043;49.388;12.128;2022-08-03T12:26:25;1.30;;;1.20;;
15889;SDS011;8043;49.388;12.128;2022-08-03T12:31:27;2.85;;;1.30;;
15889;SDS011;8043;49.388;12.128;2022-08-03T12:36:32;2.45;;;1.35;;
15889;SDS011;8043;49.388;12.128;2022-08-03T12:41:36;1.35;;;1.25;;
15889;SDS011;8043;49.388;12.128;2022-08-03T12:46:40;1.35;;;1.12;;
15889;SDS011;8043;49.388;12.128;2022-08-03T12:56:57;1.55;;;1.25;;
15889;SDS011;8043;49.388;12.128;2022-08-03T13:02:17;1.85;;;1.35;;
15889;SDS011;8043;49.388;12.128;2022-08-03T13:07:20;4.33;;;1.50;;
15889;SDS011;8043;49.388;12.128;2022-08-03T13:12:23;2.08;;;1.20;;
15889;SDS011;8043;49.388;12.128;2022-08-03T13:17:28;3.70;;;1.20;;
15889;SDS011;8043;49.388;12.128;2022-08-03T13:22:30;1.20;;;1.10;;
15889;SDS011;8043;49.388;12.128;2022-08-03T13:27:33;1.12;;;1.00;;
15889;SDS011;8043;49.388;12.128;2022-08-03T13:32:36;2.85;;;1.12;;
15889;SDS011;8043;49.388;12.128;2022-08-03T13:37:38;1.47;;;1.20;;
15889;SDS011;8043;49.388;12.128;2022-08-03T13:42:41;4.87;;;1.02;;
15889;SDS011;8043;49.388;12.128;2022-08-03T13:47:43;1.30;;;1.20;;
15889;SDS011;8043;49.388;12.128;2022-08-03T13:52:45;1.80;;;1.47;;
15889;SDS011;8043;49.388;12.128;2022-08-03T13:57:47;1.20;;;1.02;;
15889;SDS011;8043;49.388;12.128;2022-08-03T14:02:50;2.35;;;1.40;;
15889;SDS011;8043;49.388;12.128;2022-08-03T14:07:52;2.02;;;1.47;;
15889;SDS011;8043;49.388;12.128;2022-08-03T14:12:54;1.42;;;1.27;;
15889;SDS011;8043;49.388;12.128;2022-08-03T14:17:58;1.50;;;1.12;;
15889;SDS011;8043;49.388;12.128;2022-08-03T14:23:00;2.12;;;1.15;;
15889;SDS011;8043;49.388;12.128;2022-08-03T14:28:03;1.67;;;1.30;;
15889;SDS011;8043;49.388;12.128;2022-08-03T14:33:06;1.20;;;1.10;;
15889;SDS011;8043;49.388;12.128;2022-08-03T14:38:08;1.50;;;1.00;;
15889;SDS011;8043;49.388;12.128;2022-08-03T14:43:11;2.20;;;1.62;;
15889;SDS011;8043;49.388;12.128;2022-08-03T14:48:13;2.85;;;1.27;;
15889;SDS011;8043;49.388;12.128;2022-08-03T14:53:15;1.20;;;1.10;;
15889;SDS011;8043;49.388;12.128;2022-08-03T14:58:21;3.05;;;1.20;;
15889;SDS011;8043;49.388;12.128;2022-08-03T15:03:24;1.25;;;1.10;;
15889;SDS011;8043;49.388;12.128;2022-08-03T15:08:27;1.52;;;1.40;;
15889;SDS011;8043;49.388;12.128;2022-08-03T15:13:29;1.10;;;1.00;;
15889;SDS011;8043;49.388;12.128;2022-08-03T15:18:31;2.20;;;1.37;;
15889;SDS011;8043;49.388;12.128;2022-08-03T15:23:33;1.45;;;1.32;;
15889;SDS011;8043;49.388;12.128;2022-08-03T15:28:36;1.30;;;1.20;;
15889;SDS011;8043;49.388;12.128;2022-08-03T15:33:38;1.77;;;1.17;;
15889;SDS011;8043;49.388;12.128;2022-08-03T15:38:41;1.45;;;1.20;;
15889;SDS011;8043;49.388;12.128;2022-08-03T15:43:44;1.27;;;1.17;;
15889;SDS011;8043;49.388;12.128;2022-08-03T15:48:47;1.47;;;1.20;;
15889;SDS011;8043;49.388;12.128;2022-08-03T15:53:49;1.98;;;1.10;;
15889;SDS011;8043;49.388;12.128;2022-08-03T15:58:52;2.10;;;1.20;;
15889;SDS011;8043;49.388;12.128;2022-08-03T16:03:56;2.67;;;1.27;;
15889;SDS011;8043;49.388;12.128;2022-08-03T16:08:59;2.10;;;1.20;;
15889;SDS011;8043;49.388;12.128;2022-08-03T16:14:01;1.60;;;1.27;;
15889;SDS011;8043;49.388;12.128;2022-08-03T16:19:03;1.50;;;1.20;;
15889;SDS011;8043;49.388;12.128;2022-08-03T16:24:06;1.20;;;1.10;;
15889;SDS011;8043;49.388;12.128;2022-08-03T16:29:09;2.17;;;1.20;;
15889;SDS011;8043;49.388;12.128;2022-08-03T16:34:11;2.92;;;1.10;;
15889;SDS011;8043;49.388;12.128;2022-08-03T16:39:13;2.22;;;1.42;;
15889;SDS011;8043;49.388;12.128;2022-08-03T16:44:15;2.02;;;0.95;;
15889;SDS011;8043;49.388;12.128;2022-08-03T16:49:18;1.47;;;1.07;;
15889;SDS011;8043;49.388;12.128;2022-08-03T16:54:20;1.85;;;1.07;;
15889;SDS011;8043;49.388;12.128;2022-08-03T16:59:22;1.65;;;1.25;;
15889;SDS011;8043;49.388;12.128;2022-08-03T17:04:25;1.72;;;1.00;;
15889;SDS011;8043;49.388;12.128;2022-08-03T17:09:28;1.42;;;1.32;;
15889;SDS011;8043;49.388;12.128;2022-08-03T17:14:31;1.62;;;1.20;;
15889;SDS011;8043;49.388;12.128;2022-08-03T17:19:34;2.33;;;1.40;;
15889;SDS011;8043;49.388;12.128;2022-08-03T17:24:46;1.45;;;1.27;;
15889;SDS011;8043;49.388;12.128;2022-08-03T17:29:56;1.87;;;1.20;;
15889;SDS011;8043;49.388;12.128;2022-08-03T17:34:57;2.52;;;1.35;;
15889;SDS011;8043;49.388;12.128;2022-08-03T17:39:59;3.15;;;1.30;;
15889;SDS011;8043;49.388;12.128;2022-08-03T17:45:02;1.25;;;1.12;;
15889;SDS011;8043;49.388;12.128;2022-08-03T17:50:05;7.95;;;1.57;;
15889;SDS011;8043;49.388;12.128;2022-08-03T17:55:12;3.05;;;1.50;;
15889;SDS011;8043;49.388;12.128;2022-08-03T18:00:12;2.65;;;1.35;;
15889;SDS011;8043;49.388;12.128;2022-08-03T18:05:34;1.42;;;1.07;;
15889;SDS011;8043;49.388;12.128;2022-08-03T18:10:37;2.50;;;0.93;;
15889;SDS011;8043;49.388;12.128;2022-08-03T18:15:57;2.10;;;1.10;;
15889;SDS011;8043;49.388;12.128;2022-08-03T18:21:03;0.90;;;0.90;;
15889;SDS011;8043;49.388;12.128;2022-08-03T18:26:07;1.65;;;1.10;;
15889;SDS011;8043;49.388;12.128;2022-08-03T18:31:11;1.37;;;1.05;;
15889;SDS011;8043;49.388;12.128;2022-08-03T18:36:16;2.27;;;1.40;;
15889;SDS011;8043;49.388;12.128;2022-08-03T18:41:20;1.42;;;0.93;;
15889;SDS011;8043;49.388;12.128;2022-08-03T18:46:46;3.50;;;1.07;;
15889;SDS011;8043;49.388;12.128;2022-08-03T18:51:28;1.85;;;1.22;;
15889;SDS011;8043;49.388;12.128;2022-08-03T19:01:47;1.30;;;1.20;;
15889;SDS011;8043;49.388;12.128;2022-08-03T19:06:53;1.10;;;1.10;;
15889;SDS011;8043;49.388;12.128;2022-08-03T19:12:01;2.40;;;1.35;;
15889;SDS011;8043;49.388;12.128;2022-08-03T19:17:08;1.62;;;1.32;;
15889;SDS011;8043;49.388;12.128;2022-08-03T19:22:11;3.55;;;1.40;;
15889;SDS011;8043;49.388;12.128;2022-08-03T19:27:14;1.92;;;1.40;;
15889;SDS011;8043;49.388;12.128;2022-08-03T19:32:17;2.02;;;1.72;;
15889;SDS011;8043;49.388;12.128;2022-08-03T19:37:20;1.92;;;1.35;;
15889;SDS011;8043;49.388;12.128;2022-08-03T19:42:29;1.45;;;1.35;;
15889;SDS011;8043;49.388;12.128;2022-08-03T19:47:43;1.30;;;1.20;;
15889;SDS011;8043;49.388;12.128;2022-08-03T19:52:45;2.92;;;1.40;;
15889;SDS011;8043;49.388;12.128;2022-08-03T19:57:49;2.45;;;1.40;;
15889;SDS011;8043;49.388;12.128;2022-08-03T20:02:53;5.17;;;1.85;;
15889;SDS011;8043;49.388;12.128;2022-08-03T20:08:02;3.92;;;1.60;;
15889;SDS011;8043;49.388;12.128;2022-08-03T20:13:00;3.75;;;1.77;;
15889;SDS011;8043;49.388;12.128;2022-08-03T20:18:03;4.08;;;1.85;;
15889;SDS011;8043;49.388;12.128;2022-08-03T20:23:06;5.65;;;2.27;;
15889;SDS011;8043;49.388;12.128;2022-08-03T20:28:13;3.35;;;2.27;;
15889;SDS011;8043;49.388;12.128;2022-08-03T20:33:27;7.72;;;2.27;;
15889;SDS011;8043;49.388;12.128;2022-08-03T20:38:30;2.35;;;1.80;;
15889;SDS011;8043;49.388;12.128;2022-08-03T20:43:32;3.25;;;2.30;;
15889;SDS011;8043;49.388;12.128;2022-08-03T20:48:35;6.95;;;2.37;;
15889;SDS011;8043;49.388;12.128;2022-08-03T20:53:37;3.47;;;1.98;;
15889;SDS011;8043;49.388;12.128;2022-08-03T20:58:40;5.70;;;2.40;;
15889;SDS011;8043;49.388;12.128;2022-08-03T21:03:43;2.92;;;1.72;;
15889;SDS011;8043;49.388;12.128;2022-08-03T21:08:46;4.15;;;1.87;;
15889;SDS011;8043;49.388;12.128;2022-08-03T21:14:01;3.02;;;2.10;;
15889;SDS011;8043;49.388;12.128;2022-08-03T21:19:02;4.22;;;1.52;;
15889;SDS011;8043;49.388;12.128;2022-08-03T21:24:04;7.15;;;2.65;;
15889;SDS011;8043;49.388;12.128;2022-08-03T21:29:08;3.90;;;2.12;;
15889;SDS011;8043;49.388;12.128;2022-08-03T21:34:13;4.05;;;2.30;;
15889;SDS011;8043;49.388;12.128;2022-08-03T21:39:16;4.28;;;2.17;;
15889;SDS011;8043;49.388;12.128;2022-08-03T21:44:18;5.65;;;2.15;;
15889;SDS011;8043;49.388;12.128;2022-08-03T21:49:21;3.17;;;1.82;;
15889;SDS011;8043;49.388;12.128;2022-08-03T21:54:26;3.58;;;1.90;;
15889;SDS011;8043;49.388;12.128;2022-08-03T21:59:29;1.82;;;1.70;;
15889;SDS011;8043;49.388;12.128;2022-08-03T22:04:35;5.90;;;2.30;;
15889;SDS011;8043;49.388;12.128;2022-08-03T22:09:38;5.47;;;2.25;;
15889;SDS011;8043;49.388;12.128;2022-08-03T22:14:41;5.33;;;2.08;;
15889;SDS011;8043;49.388;12.128;2022-08-03T22:19:46;2.63;;;2.00;;
15889;SDS011;8043;49.388;12.128;2022-08-03T22:24:49;5.08;;;1.80;;
15889;SDS011;8043;49.388;12.128;2022-08-03T22:29:55;4.63;;;2.00;;
15889;SDS011;8043;49.388;12.128;2022-08-03T22:35:05;7.33;;;2.12;;
15889;SDS011;8043;49.388;12.128;2022-08-03T22:40:09;5.00;;;2.00;;
15889;SDS011;8043;49.388;12.128;2022-08-03T22:45:13;2.17;;;1.92;;
15889;SDS011;8043;49.388;12.128;2022-08-03T22:50:16;4.37;;;2.03;;
15889;SDS011;8043;49.388;12.128;2022-08-03T22:55:18;4.07;;;2.20;;
15889;SDS011;8043;49.388;12.128;2022-08-03T23:00:22;2.43;;;1.90;;
15889;SDS011;8043;49.388;12.128;2022-08-03T23:05:25;2.52;;;1.80;;
15889;SDS011;8043;49.388;12.128;2022-08-03T23:10:29;2.73;;;2.30;;
15889;SDS011;8043;49.388;12.128;2022-08-03T23:15:33;2.80;;;1.97;;
15889;SDS011;8043;49.388;12.128;2022-08-03T23:20:36;3.93;;;2.10;;
15889;SDS011;8043;49.388;12.128;2022-08-03T23:25:39;2.80;;;2.37;;
15889;SDS011;8043;49.388;12.128;2022-08-03T23:30:43;4.43;;;1.83;;
15889;SDS011;8043;49.388;12.128;2022-08-03T23:35:45;2.17;;;1.97;;
15889;SDS011;8043;49.388;12.128;2022-08-03T23:40:57;3.60;;;2.07;;
15889;SDS011;8043;49.388;12.128;2022-08-03T23:46:01;3.13;;;2.30;;
15889;SDS011;8043;49.388;12.128;2022-08-03T23:51:08;2.73;;;1.90;;
